Time,TemperatureF,DewpointF,PressureIn,WindDirection,WindDirectionDegrees,WindSpeedMPH,WindSpeedGustMPH,Humidity,HourlyPrecipIn,Conditions,Clouds,dailyrainin,SoftwareType,DateUTC
2013-08-15 00:00:00,55.9,55.9,29.65,North,353,0.0,6.3,100,0.00,,,0.00,VWS V13.01,2013-08-15 04:00:00,
2013-08-15 00:02:00,55.9,55.9,29.65,NNW,340,4.7,6.3,100,0.00,,,0.00,VWS V13.01,2013-08-15 04:02:00,
2013-08-15 00:04:00,56.1,56.1,29.65,North,357,6.0,10.7,100,0.00,,,0.00,VWS V13.01,2013-08-15 04:04:00,
2013-08-15 00:06:00,56.3,56.3,29.65,North,357,4.7,11.6,100,0.00,,,0.00,VWS V13.01,2013-08-15 04:06:00,
2013-08-15 00:12:00,56.3,56.3,29.65,North,353,5.4,12.5,100,0.00,,,0.00,VWS V13.01,2013-08-15 04:12:00,
2013-08-15 00:18:00,56.3,56.3,29.65,North,353,3.4,10.7,100,0.00,,,0.00,VWS V13.01,2013-08-15 04:18:00,
2013-08-15 00:22:00,55.9,55.9,29.65,NNW,338,8.1,12.5,100,0.00,,,0.00,VWS V13.01,2013-08-15 04:22:00,
2013-08-15 00:28:00,55.8,55.8,29.65,North,357,0.0,6.3,100,0.00,,,0.00,VWS V13.01,2013-08-15 04:28:00,
2013-08-15 00:34:00,55.8,55.8,29.65,NNW,329,5.4,15.2,100,0.00,,,0.00,VWS V13.01,2013-08-15 04:34:00,
2013-08-15 00:40:00,55.6,55.6,29.65,North,0,4.7,7.2,100,0.00,,,0.00,VWS V13.01,2013-08-15 04:40:00,
2013-08-15 00:46:00,55.4,55.4,29.65,NW,320,0.0,11.6,100,0.00,,,0.00,VWS V13.01,2013-08-15 04:46:00,
2013-08-15 00:52:00,55.4,55.4,29.65,North,1,8.1,15.2,100,0.00,,,0.00,VWS V13.01,2013-08-15 04:52:00,
2013-08-15 00:58:00,55.8,55.8,29.65,North,2,5.4,9.8,100,0.00,,,0.00,VWS V13.01,2013-08-15 04:58:00,
2013-08-15 01:04:00,55.9,55.9,29.65,North,353,5.4,12.5,100,0.00,,,0.00,VWS V13.01,2013-08-15 05:04:00,
2013-08-15 01:10:00,55.9,55.9,29.65,NW,321,0.0,8.1,100,0.00,,,0.00,VWS V13.01,2013-08-15 05:10:00,
2013-08-15 01:16:00,56.1,56.1,29.65,NNW,342,4.7,8.1,100,0.00,,,0.00,VWS V13.01,2013-08-15 05:16:00,
2013-08-15 01:22:00,56.3,56.3,29.65,NW,325,8.1,10.7,100,0.00,,,0.00,VWS V13.01,2013-08-15 05:22:00,
2013-08-15 01:28:00,56.5,56.5,29.65,North,1,8.1,12.5,100,0.00,,,0.00,VWS V13.01,2013-08-15 05:28:00,
2013-08-15 01:34:00,56.8,56.8,29.65,NW,313,5.4,12.5,100,0.00,,,0.00,VWS V13.01,2013-08-15 05:34:00,
2013-08-15 01:40:00,57.0,57.0,29.65,North,2,4.0,15.2,100,0.00,,,0.00,VWS V13.01,2013-08-15 05:40:00,
2013-08-15 01:46:00,57.2,57.2,29.65,North,353,5.4,16.1,100,0.00,,,0.00,VWS V13.01,2013-08-15 05:46:00,
2013-08-15 01:52:00,56.8,56.8,29.65,North,353,5.4,11.6,100,0.00,,,0.00,VWS V13.01,2013-08-15 05:52:00,
2013-08-15 01:58:00,56.8,56.8,29.65,North,357,4.7,11.6,100,0.00,,,0.00,VWS V13.01,2013-08-15 05:58:00,
2013-08-15 02:04:00,56.8,56.8,29.65,North,353,8.1,12.5,100,0.00,,,0.00,VWS V13.01,2013-08-15 06:04:00,
2013-08-15 02:10:00,57.0,57.0,29.65,NNE,24,8.7,12.5,100,0.00,,,0.00,VWS V13.01,2013-08-15 06:10:00,
2013-08-15 02:16:00,57.0,57.0,29.65,NNW,341,9.4,14.3,100,0.00,,,0.00,VWS V13.01,2013-08-15 06:16:00,
2013-08-15 02:22:00,57.2,57.2,29.65,North,9,9.4,15.2,100,0.00,,,0.00,VWS V13.01,2013-08-15 06:22:00,
2013-08-15 02:28:00,56.8,56.8,29.65,North,350,5.4,16.1,100,0.00,,,0.00,VWS V13.01,2013-08-15 06:28:00,
2013-08-15 02:34:00,56.7,56.7,29.65,North,357,11.4,21.0,100,0.00,,,0.00,VWS V13.01,2013-08-15 06:34:00,
2013-08-15 02:40:00,56.1,56.1,29.65,NW,320,9.4,12.5,100,0.00,,,0.00,VWS V13.01,2013-08-15 06:40:00,
2013-08-15 02:46:00,56.1,56.1,29.65,North,357,4.7,16.6,100,0.00,,,0.00,VWS V13.01,2013-08-15 06:46:00,
2013-08-15 02:52:00,55.8,55.8,29.65,North,1,6.0,12.5,100,0.00,,,0.00,VWS V13.01,2013-08-15 06:52:00,
2013-08-15 02:58:00,55.8,55.8,29.65,North,6,6.0,12.5,100,0.00,,,0.00,VWS V13.01,2013-08-15 06:58:00,
2013-08-15 03:04:00,55.6,55.6,29.65,NNW,334,8.7,16.6,100,0.00,,,0.00,VWS V13.01,2013-08-15 07:04:00,
2013-08-15 03:10:00,55.0,55.0,29.65,North,2,4.0,11.6,100,0.00,,,0.00,VWS V13.01,2013-08-15 07:10:00,
2013-08-15 03:16:00,55.0,55.0,29.65,North,357,4.7,14.3,100,0.00,,,0.00,VWS V13.01,2013-08-15 07:16:00,